Delta Duck — WDH7540 — position and weather

sailwx.info

Track history (hours):
 
Tides and Currents Weather Stations Pressure Air Temp Water Temp Dewpoint Dewpoint Depression Visibility Wind Speed Wind Dir Waves Ship Positions

Delta Duck

Owner: Crosby Marine Transportation, LLC, Galliano, LA. More information available from US FCC via Universal Licensing System and Coast Guard Vessel Documentation Center.

Last reported at 2017-Dec-22 03:26 UTC. Time now 2018-Jan-24 12:07 UTC.
Position N 29°36' W 090°40'.
Warning: this ship's position is 33 days out of date.

Length 19 m; draft 2.5 m.

Type: Towing. MMSI: 366990360.

Date/timePositionNaut miles runAvg speedWind from/ knotsBaromVisibWave heightAir tempDewpointWater temp
2017-Dec-22 03:26N 29°36' W 090°40'0 0.2
2017-Dec-22 03:00N 29°36' W 090°40'1 2.4
2017-Dec-22 02:30N 29°36' W 090°39'2 4.8
2017-Dec-22 02:00N 29°35' W 090°37'3 4.9
2017-Dec-22 01:29N 29°34' W 090°34'  
2017-Dec-19 00:30N 29°34' W 090°31'3 6.5
2017-Dec-19 00:00N 29°34' W 090°34'3 6.1
2017-Dec-18 23:30N 29°35' W 090°38'2 4.1
2017-Dec-18 23:00N 29°36' W 090°40'0 0.9
2017-Dec-18 22:30N 29°36' W 090°40'0 0.0
2017-Dec-18 22:00N 29°36' W 090°40'0 0.0
2017-Dec-18 21:30N 29°36' W 090°40'0 0.0
2017-Dec-18 21:00N 29°36' W 090°40'0 0.3
2017-Dec-18 20:30N 29°36' W 090°40'2 4.2
2017-Dec-18 20:00N 29°35' W 090°43'3 5.5
2017-Dec-18 19:30N 29°33' W 090°42'0 0.3
2017-Dec-18 19:00N 29°33' W 090°42'0 0.1
2017-Dec-18 18:30N 29°33' W 090°42'0 0.1
2017-Dec-18 18:00N 29°33' W 090°42'0 0.0
2017-Dec-18 17:30N 29°33' W 090°42'0 0.0
2017-Dec-18 17:00N 29°33' W 090°42'0 0.0
2017-Dec-18 16:30N 29°33' W 090°42'0 0.0
2017-Dec-18 16:00N 29°33' W 090°42'0 0.0
2017-Dec-18 15:30N 29°33' W 090°42'0 0.0
2017-Dec-18 15:00N 29°33' W 090°42'  
2017-Dec-15 13:32N 29°33' W 090°42'0 0.4
2017-Dec-15 13:31N 29°33' W 090°42'0 0.0
2017-Dec-15 13:00N 29°33' W 090°42'0 0.0
2017-Dec-15 12:31N 29°33' W 090°42'0 0.0
2017-Dec-15 12:00N 29°33' W 090°42'0 0.0
2017-Dec-15 11:30N 29°33' W 090°42'0 0.0
2017-Dec-15 11:00N 29°33' W 090°42'0 0.0
2017-Dec-15 10:00N 29°33' W 090°42'0 0.0
2017-Dec-15 09:30N 29°33' W 090°42'0 0.0
2017-Dec-15 09:00N 29°33' W 090°42'0 0.0
2017-Dec-15 08:30N 29°33' W 090°42'0 0.0
2017-Dec-15 08:00N 29°33' W 090°42'0 0.0
2017-Dec-15 07:30N 29°33' W 090°42'0 0.0
2017-Dec-15 07:00N 29°33' W 090°42'0 0.0
2017-Dec-15 06:31N 29°33' W 090°42'0 0.0
2017-Dec-15 06:01N 29°33' W 090°42'0 0.0
2017-Dec-15 05:30N 29°33' W 090°42'0 0.0
2017-Dec-15 05:00N 29°33' W 090°42'0 0.0
2017-Dec-15 04:31N 29°33' W 090°42'0 0.0
2017-Dec-15 04:00N 29°33' W 090°42'0 0.0
2017-Dec-15 02:31N 29°33' W 090°42'4 2.5
2017-Dec-15 01:01N 29°37' W 090°43'3 5.2
2017-Dec-15 00:30N 29°36' W 090°40'  
Track history (hours):
 
Tides and Currents Weather Stations Pressure Air Temp Water Temp Dewpoint Dewpoint Depression Visibility Wind Speed Wind Dir Waves Ship Positions

Delta Duck

Owner: Crosby Marine Transportation, LLC, Galliano, LA. More information available from US FCC via Universal Licensing System and Coast Guard Vessel Documentation Center.

Last reported at 2017-Dec-22 03:26 UTC. Time now 2018-Jan-24 12:07 UTC.
Position N 29°36' W 090°40'.
Warning: this ship's position is 33 days out of date.

Length 19 m; draft 2.5 m.

Type: Towing. MMSI: 366990360.

Date/timePositionNaut miles runAvg speedWind from/ knotsBaromVisibWave heightAir tempDewpointWater temp
2017-Dec-22 03:26N 29°36' W 090°40'0 0.2
2017-Dec-22 03:00N 29°36' W 090°40'1 2.4
2017-Dec-22 02:30N 29°36' W 090°39'2 4.8
2017-Dec-22 02:00N 29°35' W 090°37'3 4.9
2017-Dec-22 01:29N 29°34' W 090°34'  
2017-Dec-19 00:30N 29°34' W 090°31'3 6.5
2017-Dec-19 00:00N 29°34' W 090°34'3 6.1
2017-Dec-18 23:30N 29°35' W 090°38'2 4.1
2017-Dec-18 23:00N 29°36' W 090°40'0 0.9
2017-Dec-18 22:30N 29°36' W 090°40'0 0.0
2017-Dec-18 22:00N 29°36' W 090°40'0 0.0
2017-Dec-18 21:30N 29°36' W 090°40'0 0.0
2017-Dec-18 21:00N 29°36' W 090°40'0 0.3
2017-Dec-18 20:30N 29°36' W 090°40'2 4.2
2017-Dec-18 20:00N 29°35' W 090°43'3 5.5
2017-Dec-18 19:30N 29°33' W 090°42'0 0.3
2017-Dec-18 19:00N 29°33' W 090°42'0 0.1
2017-Dec-18 18:30N 29°33' W 090°42'0 0.1
2017-Dec-18 18:00N 29°33' W 090°42'0 0.0
2017-Dec-18 17:30N 29°33' W 090°42'0 0.0
2017-Dec-18 17:00N 29°33' W 090°42'0 0.0
2017-Dec-18 16:30N 29°33' W 090°42'0 0.0
2017-Dec-18 16:00N 29°33' W 090°42'0 0.0
2017-Dec-18 15:30N 29°33' W 090°42'0 0.0
2017-Dec-18 15:00N 29°33' W 090°42'  
2017-Dec-15 13:32N 29°33' W 090°42'0 0.4
2017-Dec-15 13:31N 29°33' W 090°42'0 0.0
2017-Dec-15 13:00N 29°33' W 090°42'0 0.0
2017-Dec-15 12:31N 29°33' W 090°42'0 0.0
2017-Dec-15 12:00N 29°33' W 090°42'0 0.0
2017-Dec-15 11:30N 29°33' W 090°42'0 0.0
2017-Dec-15 11:00N 29°33' W 090°42'0 0.0
2017-Dec-15 10:00N 29°33' W 090°42'0 0.0
2017-Dec-15 09:30N 29°33' W 090°42'0 0.0
2017-Dec-15 09:00N 29°33' W 090°42'0 0.0
2017-Dec-15 08:30N 29°33' W 090°42'0 0.0
2017-Dec-15 08:00N 29°33' W 090°42'0 0.0
2017-Dec-15 07:30N 29°33' W 090°42'0 0.0
2017-Dec-15 07:00N 29°33' W 090°42'0 0.0
2017-Dec-15 06:31N 29°33' W 090°42'0 0.0
2017-Dec-15 06:01N 29°33' W 090°42'0 0.0
2017-Dec-15 05:30N 29°33' W 090°42'0 0.0
2017-Dec-15 05:00N 29°33' W 090°42'0 0.0
2017-Dec-15 04:31N 29°33' W 090°42'0 0.0
2017-Dec-15 04:00N 29°33' W 090°42'0 0.0
2017-Dec-15 02:31N 29°33' W 090°42'4 2.5
2017-Dec-15 01:01N 29°37' W 090°43'3 5.2
2017-Dec-15 00:30N 29°36' W 090°40'  

Dump ship's entire track history